createdAt,value
2019-03-22T07:56:16.254Z,7.15
2019-03-22T07:57:17.924Z,7.20
2019-03-22T07:58:23.342Z,7.18
2019-03-22T07:59:16.157Z,7.20
2019-03-22T08:00:16.080Z,7.25
2019-03-22T08:01:16.176Z,7.28
2019-03-22T08:02:16.037Z,7.31
2019-03-22T08:03:16.189Z,7.35
2019-03-22T08:04:16.193Z,7.53
2019-03-22T08:05:16.046Z,7.70
2019-03-22T08:06:16.035Z,7.76
2019-03-22T08:07:15.985Z,7.90
2019-03-22T08:08:16.124Z,7.97
2019-03-22T08:09:15.981Z,8.00
2019-03-22T08:10:15.990Z,8.06
2019-03-22T08:11:16.052Z,8.20
2019-03-22T08:12:19.417Z,8.26
2019-03-22T08:13:16.091Z,8.30
2019-03-22T08:14:16.523Z,8.38
2019-03-22T08:15:16.016Z,8.48
2019-03-22T08:16:16.068Z,8.56
2019-03-22T08:17:15.898Z,8.63
2019-03-22T08:18:15.979Z,8.73
2019-03-22T08:19:15.854Z,8.81
2019-03-22T08:20:16.052Z,8.85
2019-03-22T08:21:15.838Z,8.94
2019-03-22T08:22:15.817Z,9.00
2019-03-22T08:23:15.913Z,8.99
2019-03-22T08:24:15.819Z,9.16
2019-03-22T08:25:15.982Z,9.23
2019-03-22T08:26:15.776Z,9.32
2019-03-22T08:27:16.384Z,9.40
2019-03-22T08:28:15.756Z,9.39
2019-03-22T08:29:15.865Z,9.54
2019-03-22T08:30:15.764Z,9.64
2019-03-22T08:31:15.802Z,9.66
2019-03-22T08:32:15.719Z,9.74
2019-03-22T08:33:15.917Z,9.79
2019-03-22T08:34:15.667Z,9.95
2019-03-22T08:35:15.886Z,9.99
2019-03-22T08:36:15.673Z,10.09
2019-03-22T08:37:15.746Z,10.15
2019-03-22T08:38:17.434Z,10.22
2019-03-22T08:39:15.649Z,10.34
2019-03-22T08:40:15.660Z,10.41
2019-03-22T08:41:15.673Z,10.49
2019-03-22T08:42:15.602Z,10.68
2019-03-22T08:43:15.672Z,10.72
2019-03-22T08:44:15.809Z,10.78
2019-03-22T08:45:15.761Z,10.82
2019-03-22T08:46:15.571Z,10.81
2019-03-22T08:47:15.667Z,10.90
2019-03-22T08:48:15.568Z,10.90
2019-03-22T08:49:15.808Z,10.90
2019-03-22T08:50:15.565Z,11.07
2019-03-22T08:51:15.529Z,11.11
2019-03-22T08:52:15.558Z,11.26
2019-03-22T08:53:15.621Z,11.27
2019-03-22T08:54:15.468Z,11.35
2019-03-22T08:55:16.037Z,11.40
2019-03-22T08:56:15.491Z,11.62
2019-03-22T08:57:15.472Z,11.73
2019-03-22T08:58:18.261Z,11.75
2019-03-22T08:59:15.550Z,11.90
2019-03-22T09:00:15.444Z,11.94
2019-03-22T09:01:15.567Z,11.99
2019-03-22T09:02:15.431Z,12.15
2019-03-22T09:03:15.391Z,12.20
2019-03-22T09:04:15.487Z,12.29
2019-03-22T09:05:15.417Z,12.37
2019-03-22T09:06:15.510Z,12.49
2019-03-22T09:07:15.379Z,12.64
2019-03-22T09:08:16.201Z,12.67
2019-03-22T09:09:15.436Z,12.67
2019-03-22T09:10:15.339Z,12.67
2019-03-22T09:11:18.032Z,12.72
2019-03-22T09:12:15.290Z,12.73
2019-03-22T09:13:15.454Z,12.75
2019-03-22T09:14:15.290Z,12.80
2019-03-22T09:15:15.304Z,12.80
2019-03-22T09:16:15.385Z,12.85
2019-03-22T09:17:15.276Z,12.80
2019-03-22T09:18:15.735Z,13.00
2019-03-22T09:19:15.230Z,13.01
2019-03-22T09:20:15.348Z,13.05
2019-03-22T09:21:15.297Z,13.15
2019-03-22T09:22:15.182Z,13.19
2019-03-22T09:23:15.310Z,13.25
2019-03-22T09:24:15.167Z,13.25
2019-03-22T09:25:15.285Z,13.31
2019-03-22T09:26:15.157Z,13.25
2019-03-22T09:27:15.129Z,13.39
2019-03-22T09:28:15.297Z,13.42
2019-03-22T09:29:15.108Z,13.46
2019-03-22T09:30:15.313Z,13.53
2019-03-22T09:31:15.077Z,13.52
2019-03-22T09:32:15.168Z,13.53
2019-03-22T09:33:15.183Z,13.53
2019-03-22T09:34:15.183Z,13.54
2019-03-22T09:35:15.101Z,13.59
2019-03-22T09:36:15.238Z,13.68
2019-03-22T09:37:15.022Z,13.60
2019-03-22T09:38:16.149Z,13.72
2019-03-22T09:39:15.010Z,13.72
2019-03-22T09:40:15.208Z,13.79
2019-03-22T09:41:14.977Z,13.79
2019-03-22T09:42:15.153Z,13.81
2019-03-22T09:43:14.971Z,13.83
2019-03-22T09:44:14.943Z,14.03
2019-03-22T09:45:14.989Z,13.96
2019-03-22T09:46:15.071Z,13.95
2019-03-22T09:47:16.525Z,14.05
2019-03-22T09:48:15.174Z,14.00
2019-03-22T09:49:14.904Z,14.08
2019-03-22T09:50:14.960Z,14.00
2019-03-22T09:51:14.924Z,14.04
2019-03-22T09:52:15.008Z,14.17
2019-03-22T09:53:14.854Z,14.22
2019-03-22T09:54:15.029Z,14.32
2019-03-22T09:55:14.855Z,14.41
2019-03-22T09:56:14.814Z,14.41
2019-03-22T09:57:14.815Z,14.51
2019-03-22T09:58:14.957Z,14.43
2019-03-22T09:59:14.781Z,14.51
2019-03-22T10:00:14.908Z,14.51
2019-03-22T10:01:23.671Z,14.63
2019-03-22T10:02:15.750Z,14.62
2019-03-22T10:03:14.880Z,14.62
2019-03-22T10:04:14.716Z,14.58
2019-03-22T10:05:14.959Z,14.59
2019-03-22T10:06:14.723Z,14.73
2019-03-22T10:07:14.806Z,14.72
2019-03-22T10:08:15.839Z,14.68
2019-03-22T10:09:14.692Z,14.72
2019-03-22T10:10:14.879Z,14.77
2019-03-22T10:11:14.638Z,14.82
2019-03-22T10:12:14.751Z,14.81
2019-03-22T10:13:14.691Z,14.79
2019-03-22T10:14:14.617Z,14.85
2019-03-22T10:15:14.810Z,14.89
2019-03-22T10:16:14.653Z,14.99
2019-03-22T10:17:14.776Z,15.04
2019-03-22T10:18:14.643Z,15.03
2019-03-22T10:19:14.731Z,14.99
2019-03-22T10:20:14.581Z,15.00
2019-03-22T10:21:22.441Z,15.10
2019-03-22T10:22:15.529Z,15.19
2019-03-22T10:23:14.716Z,15.15
2019-03-22T10:24:14.523Z,15.21
2019-03-22T10:25:14.682Z,15.10
2019-03-22T10:26:14.499Z,15.18
2019-03-22T10:27:14.722Z,15.21
2019-03-22T10:28:14.600Z,15.27
2019-03-22T10:29:14.657Z,15.22
2019-03-22T10:30:14.530Z,15.33
2019-03-22T10:31:14.592Z,15.24
2019-03-22T10:32:14.455Z,15.28
2019-03-22T10:33:22.569Z,15.33
2019-03-22T10:34:15.483Z,15.46
2019-03-22T10:35:25.380Z,15.52
2019-03-22T10:36:15.436Z,15.51
2019-03-22T10:37:14.429Z,15.65
2019-03-22T10:38:16.489Z,15.72
2019-03-22T10:39:14.524Z,15.68
2019-03-22T10:40:14.382Z,15.68
2019-03-22T10:41:14.528Z,15.67
2019-03-22T10:42:14.360Z,15.76
2019-03-22T10:43:14.307Z,15.76
2019-03-22T10:44:14.341Z,15.75
2019-03-22T10:45:14.531Z,15.67
2019-03-22T10:46:14.346Z,15.70
2019-03-22T10:47:14.385Z,15.76
2019-03-22T10:48:14.267Z,15.68
2019-03-22T10:49:14.248Z,15.83
2019-03-22T10:50:14.281Z,15.90
2019-03-22T10:51:14.385Z,15.94
2019-03-22T10:52:14.220Z,15.86
2019-03-22T10:53:14.345Z,15.94
2019-03-22T10:54:14.236Z,16.01
2019-03-22T10:55:29.354Z,16.00
2019-03-22T10:56:15.275Z,15.94
2019-03-22T10:57:14.163Z,16.02
2019-03-22T10:58:20.791Z,16.05
2019-03-22T10:59:15.161Z,16.08
2019-03-22T11:00:14.223Z,16.12
2019-03-22T11:01:14.113Z,16.10
2019-03-22T11:02:14.190Z,16.10
2019-03-22T11:03:14.109Z,16.20
2019-03-22T11:04:14.217Z,16.17
2019-03-22T11:05:14.165Z,16.28
2019-03-22T11:06:14.127Z,16.33
2019-03-22T11:07:14.050Z,16.33
2019-03-22T11:08:14.138Z,16.29
2019-03-22T11:09:14.033Z,16.29
2019-03-22T11:10:14.103Z,16.35
2019-03-22T11:11:14.010Z,16.31
2019-03-22T11:12:14.071Z,16.35
2019-03-22T11:13:13.989Z,16.36
2019-03-22T11:14:14.143Z,16.39
2019-03-22T11:15:14.010Z,16.47
2019-03-22T11:16:14.131Z,16.54
2019-03-22T11:17:13.953Z,16.64
2019-03-22T11:18:13.955Z,16.79
2019-03-22T11:19:13.945Z,16.91
2019-03-22T11:20:14.121Z,17.05
2019-03-22T11:21:13.900Z,17.38
2019-03-22T11:22:14.059Z,17.86
2019-03-22T11:23:13.882Z,18.60
2019-03-22T11:24:13.872Z,19.15
2019-03-22T11:25:13.909Z,19.76
2019-03-22T11:26:14.008Z,20.39
2019-03-22T11:27:13.943Z,21.02
2019-03-22T11:28:14.021Z,21.39
2019-03-22T11:29:13.818Z,21.96
2019-03-22T11:30:14.354Z,22.33
2019-03-22T11:31:13.797Z,22.68
2019-03-22T11:32:13.947Z,22.93
2019-03-22T11:33:13.782Z,23.12
2019-03-22T11:34:13.861Z,22.98
2019-03-22T11:35:13.790Z,22.91
2019-03-22T11:36:13.739Z,23.03
2019-03-22T11:37:13.739Z,22.72
2019-03-22T11:38:13.796Z,22.80
2019-03-22T11:39:15.754Z,22.88
2019-03-22T11:40:13.866Z,22.94
2019-03-22T11:41:13.706Z,23.17
2019-03-22T11:42:13.684Z,23.47
2019-03-22T11:43:13.672Z,23.77
2019-03-22T11:44:13.845Z,23.95
2019-03-22T11:45:13.664Z,23.83
2019-03-22T11:46:13.842Z,23.91
2019-03-22T11:47:13.631Z,24.10
2019-03-22T11:48:13.636Z,24.21
2019-03-22T11:49:13.689Z,24.45
2019-03-22T11:50:13.626Z,24.65
2019-03-22T11:51:13.709Z,24.73
2019-03-22T11:52:13.578Z,24.74
2019-03-22T11:53:13.645Z,24.60
2019-03-22T11:54:13.555Z,24.28
2019-03-22T11:55:13.711Z,24.38
2019-03-22T11:56:13.529Z,24.69
2019-03-22T11:57:13.653Z,24.95
2019-03-22T11:58:13.516Z,24.92
2019-03-22T11:59:13.495Z,24.55
2019-03-22T12:00:13.634Z,24.40
2019-03-22T12:01:19.679Z,24.47
2019-03-22T12:02:22.189Z,24.53
2019-03-22T12:03:14.566Z,24.74
2019-03-22T12:04:13.646Z,24.66
2019-03-22T12:05:15.209Z,24.91
2019-03-22T12:06:13.567Z,25.16
2019-03-22T12:07:15.008Z,25.31
2019-03-22T12:08:14.509Z,25.36
2019-03-22T12:09:13.398Z,25.40
2019-03-22T12:10:13.535Z,25.48
2019-03-22T12:11:13.427Z,25.44
2019-03-22T12:12:13.534Z,25.60
2019-03-22T12:13:13.417Z,25.84
2019-03-22T12:14:13.600Z,26.00
2019-03-22T12:15:13.427Z,26.37
2019-03-22T12:16:13.445Z,26.33
2019-03-22T12:17:13.422Z,26.21
2019-03-22T12:18:14.334Z,25.81
2019-03-22T12:19:13.421Z,25.68
2019-03-22T12:20:13.404Z,25.31
2019-03-22T12:21:14.360Z,24.95
2019-03-22T12:22:13.339Z,24.99
2019-03-22T12:23:13.367Z,25.10
2019-03-22T12:24:13.257Z,25.40
2019-03-22T12:25:13.422Z,25.75
2019-03-22T12:26:13.220Z,25.88
2019-03-22T12:27:14.422Z,26.19
2019-03-22T12:28:13.263Z,26.28
2019-03-22T12:29:13.228Z,26.68
2019-03-22T12:30:13.226Z,26.83
2019-03-22T12:31:13.300Z,26.56
2019-03-22T12:32:13.176Z,26.44
2019-03-22T12:33:13.258Z,26.55
2019-03-22T12:34:13.191Z,26.73
2019-03-22T12:35:13.222Z,26.40
2019-03-22T12:36:13.139Z,26.26
2019-03-22T12:37:13.274Z,26.31
2019-03-22T12:38:13.132Z,26.48
2019-03-22T12:39:14.160Z,26.47
2019-03-22T12:40:13.099Z,26.43
2019-03-22T12:41:13.051Z,26.29
2019-03-22T12:42:14.180Z,26.25
2019-03-22T12:43:13.035Z,26.40
2019-03-22T12:44:13.064Z,26.36
2019-03-22T12:45:13.034Z,26.21
2019-03-22T12:46:13.080Z,25.81
2019-03-22T12:47:12.986Z,25.66
2019-03-22T12:48:13.093Z,25.63
2019-03-22T12:49:12.958Z,25.75
2019-03-22T12:50:13.026Z,25.73
2019-03-22T12:51:12.943Z,25.91
2019-03-22T12:52:13.015Z,26.05
2019-03-22T12:53:12.926Z,25.88
2019-03-22T12:54:13.034Z,25.72
2019-03-22T12:55:12.932Z,25.35
2019-03-22T12:56:12.945Z,25.32
2019-03-22T12:57:12.882Z,25.32
2019-03-22T12:58:12.957Z,25.46
2019-03-22T12:59:12.859Z,25.41
2019-03-22T13:00:12.921Z,25.70
2019-03-22T13:01:12.834Z,25.99
2019-03-22T13:02:12.877Z,26.31
2019-03-22T13:03:12.810Z,26.53
2019-03-22T13:04:12.892Z,26.56
2019-03-22T13:05:12.955Z,26.25
2019-03-22T13:06:12.777Z,25.81
2019-03-22T13:07:12.911Z,25.78
2019-03-22T13:08:12.769Z,25.84
2019-03-22T13:09:12.819Z,26.23
2019-03-22T13:10:12.767Z,26.66
2019-03-22T13:11:12.739Z,27.10
2019-03-22T13:12:12.846Z,27.42
2019-03-22T13:13:12.710Z,27.65
2019-03-22T13:14:12.707Z,27.45
2019-03-22T13:15:12.776Z,27.25
2019-03-22T13:16:12.771Z,26.92
2019-03-22T13:17:12.658Z,26.60
2019-03-22T13:18:12.784Z,26.28
2019-03-22T13:19:12.648Z,26.34
2019-03-22T13:20:12.750Z,26.43
2019-03-22T13:21:12.626Z,26.65
2019-03-22T13:22:12.708Z,26.97
2019-03-22T13:23:12.603Z,27.22
2019-03-22T13:24:12.704Z,27.44
2019-03-22T13:25:12.615Z,27.75
2019-03-22T13:26:12.634Z,28.01
2019-03-22T13:27:12.567Z,28.29
2019-03-22T13:28:12.646Z,28.47
2019-03-22T13:29:12.547Z,28.60
2019-03-22T13:30:13.650Z,28.54
2019-03-22T13:31:12.522Z,28.38
2019-03-22T13:32:12.571Z,27.90
2019-03-22T13:33:12.497Z,27.27
2019-03-22T13:34:12.585Z,26.97
2019-03-22T13:35:12.504Z,26.77
2019-03-22T13:36:12.604Z,26.70
2019-03-22T13:37:12.454Z,26.66
2019-03-22T13:38:12.517Z,26.51
2019-03-22T13:39:12.430Z,26.55
2019-03-22T13:40:12.585Z,26.83
2019-03-22T13:41:12.546Z,27.17
2019-03-22T13:42:12.412Z,27.27
2019-03-22T13:43:12.457Z,27.59
2019-03-22T13:44:12.378Z,27.68
2019-03-22T13:45:13.548Z,27.90
2019-03-22T13:46:12.374Z,28.17
2019-03-22T13:47:12.353Z,28.22
2019-03-22T13:48:12.491Z,28.19
2019-03-22T13:49:12.331Z,28.11
2019-03-22T13:50:12.420Z,28.04
2019-03-22T13:51:12.304Z,27.82
2019-03-22T13:52:14.252Z,27.55
2019-03-22T13:53:12.288Z,27.40
2019-03-22T13:54:12.430Z,27.22
2019-03-22T13:55:12.293Z,26.88
2019-03-22T13:56:12.341Z,26.70
2019-03-22T13:57:12.241Z,26.56
2019-03-22T13:58:12.354Z,26.52
2019-03-22T13:59:12.221Z,26.31
2019-03-22T14:00:12.323Z,26.28
2019-03-22T14:01:12.197Z,26.25
2019-03-22T14:02:12.270Z,26.15
2019-03-22T14:03:12.179Z,26.00
2019-03-22T14:04:12.288Z,25.98
2019-03-22T14:05:12.186Z,26.09
2019-03-22T14:06:12.209Z,26.25
2019-03-22T14:07:12.136Z,26.33
2019-03-22T14:08:12.228Z,26.36
2019-03-22T14:09:12.121Z,26.45
2019-03-22T14:10:12.297Z,26.58
2019-03-22T14:11:13.087Z,26.63
2019-03-22T14:12:12.138Z,26.70
2019-03-22T14:13:12.071Z,26.55
2019-03-22T14:14:12.096Z,26.47
2019-03-22T14:15:12.080Z,26.09
2019-03-22T14:16:12.179Z,25.70
2019-03-22T14:17:12.020Z,25.44
2019-03-22T14:18:12.091Z,25.33
2019-03-22T14:19:12.000Z,25.22
2019-03-22T14:20:12.161Z,25.11
2019-03-22T14:21:11.985Z,25.06
2019-03-22T14:22:12.124Z,24.92
2019-03-22T14:23:11.967Z,25.04
2019-03-22T14:24:12.024Z,25.29
2019-03-22T14:25:11.986Z,25.36
2019-03-22T14:26:12.046Z,25.44
2019-03-22T14:27:11.925Z,25.46
2019-03-22T14:28:12.061Z,25.51
2019-03-22T14:29:11.906Z,25.59
2019-03-22T14:30:12.027Z,25.58
2019-03-22T14:31:11.872Z,25.68
2019-03-22T14:32:11.987Z,25.58
2019-03-22T14:33:13.534Z,25.55
2019-03-22T14:34:11.997Z,25.50
2019-03-22T14:35:11.821Z,25.46
2019-03-22T14:36:11.960Z,25.40
2019-03-22T14:37:11.818Z,25.32
2019-03-22T14:38:12.949Z,25.31
2019-03-22T14:39:11.800Z,25.33
2019-03-22T14:40:15.598Z,25.31
2019-03-22T14:41:11.795Z,25.26
2019-03-22T14:42:11.850Z,25.21
2019-03-22T14:43:11.755Z,25.25
2019-03-22T14:44:11.864Z,25.44
2019-03-22T14:45:11.742Z,25.38
2019-03-22T14:46:11.835Z,25.21
2019-03-22T14:47:13.051Z,25.06
2019-03-22T14:48:11.707Z,24.85
2019-03-22T14:49:11.789Z,24.74
2019-03-22T14:50:11.673Z,24.66
2019-03-22T14:51:11.870Z,24.70
2019-03-22T14:52:11.664Z,24.60
2019-03-22T14:53:11.647Z,24.48
2019-03-22T14:54:11.727Z,24.32
2019-03-22T14:55:11.664Z,24.20
2019-03-22T14:56:11.741Z,24.10
2019-03-22T14:57:11.597Z,24.16
2019-03-22T14:58:11.758Z,24.29
2019-03-22T14:59:11.582Z,24.43
2019-03-22T15:00:11.724Z,24.60
2019-03-22T15:01:11.574Z,24.66
2019-03-22T15:02:11.669Z,24.70
2019-03-22T15:03:11.535Z,24.65
2019-03-22T15:04:11.692Z,24.70
2019-03-22T15:05:11.599Z,24.73
2019-03-22T15:06:11.513Z,24.78
2019-03-22T15:07:19.598Z,24.69
2019-03-22T15:08:12.496Z,24.77
2019-03-22T15:09:12.554Z,24.88
2019-03-22T15:10:11.500Z,24.91
2019-03-22T15:11:11.463Z,24.42
2019-03-22T15:12:11.443Z,24.38
2019-03-22T15:13:11.555Z,24.30
2019-03-22T15:14:11.428Z,24.16
2019-03-22T15:15:11.461Z,24.13
2019-03-22T15:16:11.401Z,24.13
2019-03-22T15:17:11.394Z,24.21
2019-03-22T15:18:11.487Z,24.13
2019-03-22T15:19:11.383Z,24.02
2019-03-22T15:20:12.492Z,24.18
2019-03-22T15:21:11.362Z,24.23
2019-03-22T15:22:11.519Z,24.39
2019-03-22T15:23:13.430Z,24.40
2019-03-22T15:24:11.422Z,24.35
2019-03-22T15:25:11.336Z,24.36
2019-03-22T15:26:11.450Z,24.21
2019-03-22T15:27:11.301Z,24.33
2019-03-22T15:28:12.124Z,24.20
2019-03-22T15:29:11.351Z,23.80
2019-03-22T15:30:11.434Z,23.37
2019-03-22T15:31:11.252Z,23.20
2019-03-22T15:32:11.387Z,23.20
2019-03-22T15:33:11.217Z,23.10
2019-03-22T15:34:11.401Z,23.02
2019-03-22T15:35:11.290Z,22.98
2019-03-22T15:37:11.290Z,23.09
2019-03-22T15:38:12.355Z,23.15
2019-03-22T15:39:11.353Z,23.27
2019-03-22T15:40:11.185Z,23.41
2019-03-22T15:41:11.153Z,23.56
2019-03-22T15:42:12.279Z,23.71
2019-03-22T15:43:11.107Z,23.77
2019-03-22T15:44:11.321Z,23.86
2019-03-22T15:45:11.209Z,23.80
2019-03-22T15:46:11.088Z,23.74
2019-03-22T15:47:11.105Z,23.77
2019-03-22T15:48:11.193Z,23.78
2019-03-22T15:49:11.056Z,23.80
2019-03-22T15:50:11.253Z,23.87
2019-03-22T15:51:11.041Z,23.73
2019-03-22T15:52:11.032Z,23.68
2019-03-22T15:53:11.126Z,23.69
2019-03-22T15:54:11.031Z,23.80
2019-03-22T15:55:12.125Z,23.86
2019-03-22T15:56:11.000Z,23.96
2019-03-22T15:57:11.162Z,24.01
2019-03-22T15:58:10.974Z,24.01
2019-03-22T15:59:11.078Z,24.01
2019-03-22T16:00:10.987Z,23.98
2019-03-22T16:01:11.088Z,23.91
2019-03-22T16:02:10.930Z,23.77
2019-03-22T16:03:11.104Z,23.76
2019-03-22T16:04:10.911Z,23.76
2019-03-22T16:05:11.073Z,23.68
2019-03-22T16:06:10.892Z,23.69
2019-03-22T16:07:11.026Z,23.65
2019-03-22T16:08:10.869Z,23.63
2019-03-22T16:09:11.045Z,23.51
2019-03-22T16:10:10.873Z,23.34
2019-03-22T16:11:10.957Z,23.28
2019-03-22T16:12:10.827Z,23.39
2019-03-22T16:13:11.997Z,23.31
2019-03-22T16:14:10.806Z,23.23
2019-03-22T16:15:10.943Z,23.25
2019-03-22T16:16:10.780Z,23.05
2019-03-22T16:17:10.900Z,23.09
2019-03-22T16:18:10.764Z,23.05
2019-03-22T16:19:10.917Z,23.08
2019-03-22T16:20:10.762Z,23.06
2019-03-22T16:21:10.727Z,22.93
2019-03-22T16:22:10.721Z,22.88
2019-03-22T16:23:10.864Z,22.83
2019-03-22T16:24:10.696Z,22.80
2019-03-22T16:25:10.921Z,22.83
2019-03-22T16:26:10.669Z,22.85
2019-03-22T16:27:10.665Z,22.94
2019-03-22T16:28:10.647Z,22.87
2019-03-22T16:29:10.784Z,23.00
2019-03-22T16:30:10.655Z,22.98
2019-03-22T16:31:10.797Z,22.87
2019-03-22T16:32:10.608Z,22.91
2019-03-22T16:33:10.606Z,22.83
2019-03-22T16:34:10.596Z,22.80
2019-03-22T16:35:10.787Z,22.76
2019-03-22T16:36:10.598Z,22.76
2019-03-22T16:37:11.765Z,22.75
2019-03-22T16:38:10.548Z,22.70
2019-03-22T16:39:10.546Z,22.68
2019-03-22T16:40:10.660Z,22.65
2019-03-22T16:41:10.543Z,22.55
2019-03-22T16:42:10.677Z,22.57
2019-03-22T16:43:10.493Z,22.62
2019-03-22T16:44:10.688Z,22.63
2019-03-22T16:45:10.476Z,22.62
2019-03-22T16:46:10.652Z,22.70
2019-03-22T16:47:10.454Z,22.72
2019-03-22T16:48:10.615Z,22.65
2019-03-22T16:49:10.435Z,22.62
2019-03-22T16:50:10.631Z,22.53
2019-03-22T16:51:10.596Z,22.35
2019-03-22T16:52:10.398Z,22.43
2019-03-22T16:53:10.555Z,22.23
2019-03-22T16:54:10.384Z,22.17
2019-03-22T16:55:10.565Z,21.98
2019-03-22T16:56:10.394Z,21.77
2019-03-22T16:57:10.351Z,21.61
2019-03-22T16:58:10.383Z,21.39
2019-03-22T16:59:10.324Z,21.27
2019-03-22T17:00:10.407Z,21.12
2019-03-22T17:01:10.358Z,21.06
2019-03-22T17:02:10.416Z,20.82
2019-03-22T17:03:10.297Z,20.66
2019-03-22T17:04:10.323Z,20.56
2019-03-22T17:05:10.257Z,20.36
2019-03-22T17:06:10.399Z,20.26
2019-03-22T17:07:10.238Z,20.04
2019-03-22T17:08:10.348Z,19.95
2019-03-22T17:09:10.222Z,19.67
2019-03-22T17:10:10.270Z,19.59
2019-03-22T17:11:10.234Z,19.37
2019-03-22T17:12:10.280Z,19.22
2019-03-22T17:13:10.188Z,19.15
2019-03-22T17:14:10.170Z,18.99
2019-03-22T17:15:10.157Z,18.86
2019-03-22T17:16:10.270Z,18.71
2019-03-22T17:17:10.143Z,18.66
2019-03-22T17:18:10.225Z,18.49
2019-03-22T17:19:10.149Z,18.38
2019-03-22T17:20:10.192Z,18.22
2019-03-22T17:21:10.124Z,18.08
2019-03-22T17:22:10.151Z,18.00
2019-03-22T17:23:10.080Z,17.80
2019-03-22T17:24:10.171Z,17.70
2019-03-22T17:25:10.079Z,17.65
2019-03-22T17:26:10.041Z,17.57
2019-03-22T17:27:10.051Z,17.42
2019-03-22T17:28:10.094Z,17.42
2019-03-22T17:29:10.011Z,17.30
2019-03-22T17:30:10.181Z,17.22
2019-03-22T17:31:09.988Z,17.20
2019-03-22T17:32:10.043Z,17.04
2019-03-22T17:33:10.015Z,16.90
2019-03-22T17:34:14.225Z,16.89
2019-03-22T17:35:10.099Z,16.84
2019-03-22T17:36:10.063Z,16.72
2019-03-22T17:37:09.924Z,16.65
2019-03-22T17:38:09.977Z,16.36
2019-03-22T17:39:09.969Z,16.31
2019-03-22T17:40:10.208Z,16.32
2019-03-22T17:41:09.885Z,16.17
2019-03-22T17:42:10.007Z,16.13
2019-03-22T17:43:09.856Z,16.02
2019-03-22T17:44:09.918Z,16.05
2019-03-22T17:45:10.131Z,15.97
2019-03-22T17:46:09.829Z,15.94
2019-03-22T17:47:09.944Z,15.70
2019-03-22T17:48:09.810Z,15.70
2019-03-22T17:49:09.964Z,15.59
2019-03-22T17:50:10.060Z,15.59
2019-03-22T17:51:09.774Z,15.57
2019-03-22T17:52:09.878Z,15.55
2019-03-22T17:53:09.752Z,15.44
2019-03-22T17:54:09.897Z,15.29
2019-03-22T17:55:09.765Z,15.15
2019-03-22T17:56:09.722Z,15.22
2019-03-22T17:57:18.392Z,15.06
2019-03-22T17:58:10.700Z,15.02
2019-03-22T17:59:09.824Z,14.92
2019-03-22T18:00:09.741Z,14.78
2019-03-22T18:01:09.737Z,14.68
2019-03-22T18:02:09.696Z,14.54
2019-03-22T18:03:09.749Z,14.51
2019-03-22T18:04:09.633Z,14.51
2019-03-22T18:05:09.834Z,14.47
2019-03-22T18:06:11.249Z,14.47
2019-03-22T18:07:09.692Z,14.40
2019-03-22T18:08:09.597Z,14.32
2019-03-22T18:09:09.697Z,14.35
2019-03-22T18:10:09.606Z,14.28
2019-03-22T18:11:09.724Z,14.18
2019-03-22T18:12:09.548Z,14.17
2019-03-22T18:13:09.552Z,14.07
2019-03-22T18:14:09.535Z,13.95
2019-03-22T18:15:09.708Z,13.79
2019-03-22T18:16:09.505Z,13.77
2019-03-22T18:17:09.667Z,13.62
2019-03-22T18:18:09.493Z,13.50
2019-03-22T18:19:09.557Z,13.42
2019-03-22T18:20:09.500Z,13.31
2019-03-22T18:21:09.594Z,13.33
2019-03-22T18:22:09.445Z,13.22
2019-03-22T18:23:09.615Z,13.13
2019-03-22T18:24:09.422Z,13.12
2019-03-22T18:25:09.440Z,13.08
2019-03-22T18:26:09.399Z,13.00
2019-03-22T18:27:09.551Z,12.86
2019-03-22T18:28:09.383Z,12.90
2019-03-22T18:29:09.574Z,12.87
2019-03-22T18:30:09.385Z,12.76
2019-03-22T18:31:09.349Z,12.82
2019-03-22T18:32:09.391Z,12.82
2019-03-22T18:33:09.328Z,12.68
2019-03-22T18:34:09.410Z,12.61
2019-03-22T18:35:09.333Z,12.57
2019-03-22T18:36:09.329Z,12.53
2019-03-22T18:37:09.286Z,12.46
2019-03-22T18:38:09.338Z,12.43
2019-03-22T18:39:09.260Z,12.39
2019-03-22T18:40:09.411Z,12.39
2019-03-22T18:41:09.236Z,12.37
2019-03-22T18:42:11.314Z,12.28
2019-03-22T18:43:09.274Z,12.27
2019-03-22T18:44:09.209Z,12.28
2019-03-22T18:45:09.352Z,12.27
2019-03-22T18:46:09.188Z,12.18
2019-03-22T18:47:09.306Z,12.15
2019-03-22T18:48:09.168Z,12.02
2019-03-22T18:49:09.158Z,11.99
2019-03-22T18:50:10.314Z,11.99
2019-03-22T18:51:09.130Z,11.91
2019-03-22T18:52:09.245Z,11.91
2019-03-22T18:53:09.122Z,11.87
2019-03-22T18:54:09.270Z,11.81
2019-03-22T18:55:09.090Z,11.73
2019-03-22T18:56:09.239Z,11.78
2019-03-22T18:57:09.086Z,11.75
2019-03-22T18:58:09.204Z,11.73
2019-03-22T18:59:09.055Z,11.66
2019-03-22T19:00:09.101Z,11.72
2019-03-22T19:01:09.054Z,11.65
2019-03-22T19:02:09.121Z,11.69
2019-03-22T19:03:09.005Z,11.62
2019-03-22T19:04:09.265Z,11.62
2019-03-22T19:05:09.208Z,11.59
2019-03-22T19:06:09.502Z,11.55
2019-03-22T19:07:08.955Z,11.51
2019-03-22T19:08:09.066Z,11.41
2019-03-22T19:09:08.949Z,11.43
2019-03-22T19:10:09.081Z,11.36
2019-03-22T19:11:08.943Z,11.29
2019-03-22T19:12:09.003Z,11.19
2019-03-22T19:13:08.899Z,11.11
2019-03-22T19:14:09.013Z,11.00
2019-03-22T19:15:08.880Z,11.08
2019-03-22T19:16:09.117Z,10.96
2019-03-22T19:17:08.860Z,10.96
2019-03-22T19:18:08.866Z,10.97
2019-03-22T19:19:08.842Z,10.96
2019-03-22T19:20:08.961Z,10.93
2019-03-22T19:21:08.870Z,10.82
2019-03-22T19:22:08.962Z,10.87
2019-03-22T19:23:08.791Z,10.84
2019-03-22T19:24:08.767Z,10.72
2019-03-22T19:25:08.785Z,10.64
2019-03-22T19:26:08.950Z,10.71
2019-03-22T19:27:08.742Z,10.64
2019-03-22T19:28:08.911Z,10.59
2019-03-22T19:29:08.771Z,10.57
2019-03-22T19:30:08.712Z,10.54
2019-03-22T19:31:08.740Z,10.48
2019-03-22T19:32:13.753Z,10.41
2019-03-22T19:33:08.776Z,10.41
2019-03-22T19:34:08.857Z,10.44
2019-03-22T19:35:08.684Z,10.33
2019-03-22T19:36:08.814Z,10.34
2019-03-22T19:37:08.652Z,10.37
2019-03-22T19:38:08.810Z,10.41
2019-03-22T19:39:08.646Z,10.44
2019-03-22T19:40:08.772Z,10.35
2019-03-22T19:41:08.607Z,10.22
2019-03-22T19:42:08.582Z,10.34
2019-03-22T19:43:08.740Z,10.25
2019-03-22T19:44:08.585Z,10.33
2019-03-22T19:45:08.761Z,10.25
2019-03-22T19:46:08.577Z,10.09
2019-03-22T19:47:08.670Z,10.19
2019-03-22T19:48:08.532Z,10.19
2019-03-22T19:49:08.591Z,10.16
2019-03-22T19:50:08.511Z,10.15
2019-03-22T19:51:08.547Z,10.16
2019-03-22T19:52:08.481Z,10.17
2019-03-22T19:53:08.472Z,10.12
2019-03-22T19:54:08.514Z,10.05
2019-03-22T19:55:09.564Z,10.05
2019-03-22T19:56:11.350Z,10.04
2019-03-22T19:57:13.576Z,10.07
2019-03-22T19:58:08.449Z,10.04
2019-03-22T19:59:08.558Z,10.01
2019-03-22T20:00:09.705Z,10.04
2019-03-22T20:01:11.211Z,10.02
2019-03-22T20:02:08.412Z,10.01
2019-03-22T20:03:08.616Z,9.94
2019-03-22T20:04:08.592Z,9.89
2019-03-22T20:05:08.421Z,9.91
2019-03-22T20:06:08.396Z,9.92
2019-03-22T20:07:08.443Z,9.95
2019-03-22T20:08:08.370Z,9.87
2019-03-22T20:09:09.749Z,9.84
2019-03-22T20:10:08.544Z,9.95
2019-03-22T20:11:08.318Z,9.89
2019-03-22T20:12:08.347Z,9.86
2019-03-22T20:13:08.407Z,9.86
2019-03-22T20:14:08.719Z,9.77
2019-03-22T20:15:08.498Z,9.82
2019-03-22T20:16:08.280Z,9.73
2019-03-22T20:17:08.225Z,9.69
2019-03-22T20:18:08.214Z,9.68
2019-03-22T20:19:08.425Z,9.65
2019-03-22T20:20:08.267Z,9.66
2019-03-22T20:21:09.332Z,9.55
2019-03-22T20:22:08.257Z,9.50
2019-03-22T20:23:08.345Z,9.54
2019-03-22T20:24:08.309Z,9.48
2019-03-22T20:25:08.472Z,9.55
2019-03-22T20:26:08.188Z,9.44
2019-03-22T20:27:09.288Z,9.51
2019-03-22T20:28:08.185Z,9.43
2019-03-22T20:29:08.190Z,9.47
2019-03-22T20:30:08.192Z,9.46
2019-03-22T20:31:08.192Z,9.40
2019-03-22T20:32:08.173Z,9.32
2019-03-22T20:33:09.207Z,9.28
2019-03-22T20:34:08.131Z,9.19
2019-03-22T20:35:16.289Z,9.29
2019-03-22T20:36:09.143Z,9.22
2019-03-22T20:37:08.121Z,9.21
2019-03-22T20:38:08.136Z,9.21
2019-03-22T20:39:08.149Z,9.21
2019-03-22T20:40:08.057Z,9.14
2019-03-22T20:41:08.181Z,9.23
2019-03-22T20:42:09.227Z,9.23
2019-03-22T20:43:08.035Z,9.26
2019-03-22T20:44:08.084Z,9.21
2019-03-22T20:45:07.939Z,9.14
2019-03-22T20:46:08.083Z,9.19
2019-03-22T20:47:08.001Z,9.14
2019-03-22T20:48:07.966Z,9.18
2019-03-22T20:49:07.922Z,9.13
2019-03-22T20:50:08.051Z,9.13
2019-03-22T20:51:07.972Z,9.11
2019-03-22T20:52:08.998Z,9.04